Time;durP1;ratioP1;P1;durP2;ratioP2;P2;SDS_P1;SDS_P2;PMS_P1;PMS_P2;Temp;Humidity;BMP_temperature;BMP_pressure;BME280_temperature;BME280_humidity;BME280_pressure;Samples;Min_cycle;Max_cycle;Signal;HPM_P1;HPM_P2
2023/03/08 00:00:33;;;;;;;1.23;0.90;;;13.20;52.50;;;;;;6225421;23;19997;-70
2023/03/08 00:02:58;;;;;;;1.83;1.08;;;13.10;52.50;;;;;;6226022;23;20104;-73
2023/03/08 00:05:24;;;;;;;2.38;1.10;;;13.10;53.10;;;;;;6226432;23;19996;-73
2023/03/08 00:07:52;;;;;;;1.77;1.05;;;13.10;52.50;;;;;;6226231;23;20000;-73
2023/03/08 00:10:18;;;;;;;0.80;0.70;;;13.10;52.40;;;;;;6226272;23;19996;-74
2023/03/08 00:12:44;;;;;;;2.05;1.10;;;13.20;52.50;;;;;;6216454;23;20127;-73
2023/03/08 00:15:10;;;;;;;2.10;0.90;;;13.20;52.40;;;;;;6226126;23;20012;-73
2023/03/08 00:17:37;;;;;;;1.95;1.20;;;13.20;52.30;;;;;;6226208;23;19996;-72
2023/03/08 00:20:07;;;;;;;0.82;0.82;;;13.30;52.40;;;;;;6226197;23;20067;-73
2023/03/08 00:22:39;;;;;;;;;;;13.20;52.40;;;;;;6226612;23;19997;-73
2023/03/08 00:25:07;;;;;;;1.88;1.10;;;13.20;52.30;;;;;;6226115;23;19982;-73
2023/03/08 00:27:33;;;;;;;1.50;0.70;;;13.20;52.30;;;;;;6216391;23;20368;-73
2023/03/08 00:29:59;;;;;;;1.33;0.90;;;13.20;52.30;;;;;;6225930;23;20003;-73
2023/03/08 00:32:25;;;;;;;1.55;1.00;;;13.20;52.30;;;;;;6225988;23;19992;-73
2023/03/08 00:34:52;;;;;;;1.15;0.90;;;13.20;52.40;;;;;;6225886;23;20008;-73
2023/03/08 00:37:17;;;;;;;2.00;0.90;;;13.20;52.30;;;;;;6225875;23;20459;-73
2023/03/08 00:39:43;;;;;;;1.27;0.75;;;13.20;52.30;;;;;;6225927;23;19997;-70
2023/03/08 00:42:08;;;;;;;2.03;1.20;;;13.20;52.40;;;;;;6225893;23;19997;-70
2023/03/08 00:44:34;;;;;;;1.42;0.80;;;13.20;52.40;;;;;;6225833;23;19996;-70
2023/03/08 00:47:00;;;;;;;1.20;1.10;;;13.20;52.40;;;;;;6225836;23;20019;-70
2023/03/08 00:49:26;;;;;;;1.05;0.77;;;13.20;52.40;;;;;;6214620;23;20309;-70
2023/03/08 00:51:52;;;;;;;1.55;0.90;;;13.20;52.40;;;;;;6215708;23;19996;-70
2023/03/08 00:54:17;;;;;;;1.80;1.00;;;13.20;52.40;;;;;;6225564;23;20032;-70
2023/03/08 00:56:43;;;;;;;1.38;0.85;;;13.20;52.40;;;;;;6225699;23;19993;-70
2023/03/08 00:59:08;;;;;;;1.65;0.90;;;13.20;52.30;;;;;;6225736;23;20000;-72
2023/03/08 01:01:34;;;;;;;1.77;0.70;;;13.20;52.40;;;;;;6225739;23;20000;-72
2023/03/08 01:04:01;;;;;;;0.80;0.70;;;13.20;52.30;;;;;;6225563;23;20017;-75
2023/03/08 01:06:27;;;;;;;1.80;0.88;;;13.10;52.40;;;;;;6225710;23;20391;-73
2023/03/08 01:08:52;;;;;;;2.35;0.68;;;13.10;52.40;;;;;;6225724;23;20081;-74
2023/03/08 01:11:22;;;;;;;1.17;0.80;;;13.20;52.30;;;;;;6223679;23;19997;-74
2023/03/08 01:13:49;;;;;;;0.67;0.57;;;13.10;52.40;;;;;;6225543;23;20083;-74
2023/03/08 01:16:21;;;;;;;1.40;1.13;;;13.10;52.40;;;;;;6225549;23;20005;-71
2023/03/08 01:18:47;;;;;;;1.20;0.55;;;13.10;52.30;;;;;;6225644;23;20031;-70
2023/03/08 01:21:12;;;;;;;1.23;0.88;;;13.20;52.40;;;;;;6225396;23;20003;-70
2023/03/08 01:23:38;;;;;;;0.70;0.60;;;13.10;52.40;;;;;;6225530;23;20071;-70
2023/03/08 01:26:07;;;;;;;1.08;0.80;;;13.40;53.10;;;;;;6225469;23;19993;-70
2023/03/08 01:28:33;;;;;;;2.35;0.90;;;13.20;52.40;;;;;;6225524;23;20000;-71
2023/03/08 01:31:07;;;;;;;0.95;0.68;;;13.10;52.30;;;;;;6215713;23;20012;-71
2023/03/08 01:33:33;;;;;;;1.08;0.77;;;13.10;52.30;;;;;;6225349;23;20337;-71
2023/03/08 01:36:03;;;;;;;0.90;0.70;;;13.10;52.90;;;;;;6225566;23;19997;-72
2023/03/08 01:38:28;;;;;;;0.63;0.55;;;13.10;52.40;;;;;;6215644;23;19996;-72
2023/03/08 01:40:59;;;;;;;1.35;0.85;;;13.10;52.50;;;;;;6215557;23;20328;-70
2023/03/08 01:43:34;;;;;;;1.17;0.60;;;13.10;52.40;;;;;;6225338;23;20368;-70
2023/03/08 01:46:20;;;;;;;0.70;0.70;;;13.10;52.40;;;;;;6225310;23;20079;-70
2023/03/08 01:49:00;;;;;;;1.60;0.80;;;13.10;52.40;;;;;;6225347;23;20027;-70
2023/03/08 01:51:41;;;;;;;;;;;13.10;52.30;;;;;;6225763;23;19992;-70
2023/03/08 01:54:17;;;;;;;0.50;0.50;;;13.10;52.30;;;;;;6225247;23;19991;-70
2023/03/08 01:56:46;;;;;;;1.05;0.50;;;13.10;52.50;;;;;;6225298;23;19992;-70
2023/03/08 01:59:12;;;;;;;1.10;0.85;;;13.10;52.40;;;;;;6225158;23;19997;-70
2023/03/08 02:01:38;;;;;;;0.90;0.63;;;13.10;52.40;;;;;;6225027;23;20003;-71
2023/03/08 02:04:05;;;;;;;0.65;0.50;;;13.10;52.50;;;;;;6224818;23;20066;-70
2023/03/08 02:06:31;;;;;;;2.33;0.80;;;13.10;52.40;;;;;;6215286;23;20007;-70
2023/03/08 02:08:57;;;;;;;1.00;0.60;;;13.10;52.40;;;;;;6215379;23;20020;-70
2023/03/08 02:11:24;;;;;;;0.63;0.60;;;13.10;52.40;;;;;;6215235;23;19996;-70
2023/03/08 02:13:51;;;;;;;1.10;0.70;;;13.10;52.40;;;;;;6225128;23;20091;-70
2023/03/08 02:16:18;;;;;;;1.23;0.73;;;13.00;52.40;;;;;;6215212;23;20003;-70
2023/03/08 02:18:57;;;;;;;0.70;0.60;;;13.10;52.30;;;;;;6224947;23;19992;-70
2023/03/08 02:21:23;;;;;;;1.38;0.70;;;13.10;52.40;;;;;;6224980;23;20426;-70
2023/03/08 02:23:49;;;;;;;1.10;0.73;;;13.00;52.40;;;;;;6214708;23;20091;-70
2023/03/08 02:26:16;;;;;;;0.75;0.60;;;13.00;52.30;;;;;;6214786;23;20000;-70
2023/03/08 02:28:43;;;;;;;0.70;0.50;;;13.00;52.30;;;;;;6215207;23;19997;-71
2023/03/08 02:31:10;;;;;;;2.05;0.65;;;13.00;52.30;;;;;;6215134;23;20000;-73
2023/03/08 02:33:36;;;;;;;0.80;0.70;;;13.00;52.30;;;;;;6214959;23;20396;-73
2023/03/08 02:36:04;;;;;;;2.58;0.73;;;13.00;52.40;;;;;;6215191;23;20004;-73
2023/03/08 02:38:30;;;;;;;1.30;0.70;;;13.00;52.40;;;;;;6215071;23;20410;-73
2023/03/08 02:40:56;;;;;;;1.20;0.80;;;13.00;52.40;;;;;;6215082;23;20320;-73
2023/03/08 02:43:22;;;;;;;0.73;0.60;;;13.00;52.40;;;;;;6214646;23;19992;-72
2023/03/08 02:45:48;;;;;;;1.60;0.77;;;13.00;52.40;;;;;;6224713;23;20003;-74
2023/03/08 02:48:14;;;;;;;1.20;0.70;;;13.00;52.50;;;;;;6224781;23;19997;-71
2023/03/08 02:50:40;;;;;;;1.02;0.73;;;13.00;52.50;;;;;;6214968;23;20001;-70
2023/03/08 02:53:06;;;;;;;2.25;0.82;;;13.00;52.40;;;;;;6214830;23;19997;-70
2023/03/08 02:55:36;;;;;;;2.83;0.95;;;13.00;52.50;;;;;;6214480;23;20424;-70
2023/03/08 02:58:04;;;;;;;1.67;0.65;;;13.00;52.40;;;;;;6214997;23;20370;-70
2023/03/08 03:00:30;;;;;;;2.55;0.90;;;13.00;52.40;;;;;;6214755;23;20062;-70
2023/03/08 03:02:56;;;;;;;1.48;0.90;;;13.00;52.50;;;;;;6214404;23;20020;-70
2023/03/08 03:05:22;;;;;;;0.60;0.60;;;12.90;52.40;;;;;;6214826;23;20001;-70
2023/03/08 03:07:48;;;;;;;2.45;0.70;;;13.00;52.40;;;;;;6214809;23;19999;-70
2023/03/08 03:10:14;;;;;;;0.98;0.80;;;12.90;52.50;;;;;;6214503;23;20302;-70
2023/03/08 03:12:40;;;;;;;2.67;1.17;;;12.90;52.50;;;;;;6214755;23;20003;-70
2023/03/08 03:15:07;;;;;;;2.10;1.00;;;12.90;52.50;;;;;;6224360;23;20008;-70
2023/03/08 03:17:35;;;;;;;1.48;0.90;;;12.90;52.50;;;;;;6214410;23;19993;-70
2023/03/08 03:20:07;;;;;;;1.08;0.70;;;12.90;52.50;;;;;;6214749;23;20001;-71
2023/03/08 03:22:34;;;;;;;1.77;0.90;;;12.90;52.40;;;;;;6214860;23;19997;-71
2023/03/08 03:25:00;;;;;;;1.35;0.93;;;12.90;52.40;;;;;;6214801;23;20381;-74
2023/03/08 03:27:26;;;;;;;3.25;0.60;;;12.90;52.50;;;;;;6224597;23;19997;-74
2023/03/08 03:29:52;;;;;;;1.17;1.00;;;12.90;52.50;;;;;;6224389;23;19996;-74
2023/03/08 03:32:17;;;;;;;4.85;0.93;;;12.90;52.50;;;;;;6224450;23;20001;-74
2023/03/08 03:34:43;;;;;;;1.83;1.25;;;12.80;52.50;;;;;;6213168;23;20008;-74
2023/03/08 03:37:08;;;;;;;0.90;0.90;;;12.80;52.50;;;;;;6226573;23;19996;-74
2023/03/08 03:39:38;;;;;;;1.25;0.82;;;12.90;52.50;;;;;;6226575;23;20047;-74
2023/03/08 03:42:07;;;;;;;2.42;0.90;;;12.90;52.50;;;;;;6226525;23;19996;-74
2023/03/08 03:44:32;;;;;;;1.73;1.00;;;12.90;52.50;;;;;;6226661;23;20058;-74
2023/03/08 03:46:58;;;;;;;1.40;0.73;;;12.80;52.50;;;;;;6226531;23;20113;-74
2023/03/08 03:49:24;;;;;;;1.35;0.90;;;12.80;52.50;;;;;;6226412;23;20003;-74
2023/03/08 03:51:49;;;;;;;1.70;1.02;;;12.80;52.50;;;;;;6226349;23;20537;-74
2023/03/08 03:54:15;;;;;;;2.15;1.00;;;12.80;52.50;;;;;;6216527;23;20008;-74
2023/03/08 03:56:41;;;;;;;1.75;1.17;;;12.80;52.50;;;;;;6226446;23;19997;-74
2023/03/08 03:59:06;;;;;;;1.15;0.85;;;12.90;52.60;;;;;;6226316;23;19997;-74
2023/03/08 04:01:32;;;;;;;2.22;1.17;;;12.80;52.50;;;;;;6226274;23;20028;-73
2023/03/08 04:03:59;;;;;;;2.17;1.48;;;12.80;52.60;;;;;;6226178;23;20012;-73
2023/03/08 04:06:27;;;;;;;2.20;1.05;;;12.80;52.60;;;;;;6215086;23;20375;-73
2023/03/08 04:08:55;;;;;;;3.00;0.73;;;12.80;52.60;;;;;;6226228;23;20015;-73
2023/03/08 04:11:23;;;;;;;2.10;1.20;;;12.80;52.60;;;;;;6226294;23;20000;-74
2023/03/08 04:13:49;;;;;;;1.13;1.02;;;12.80;52.70;;;;;;6226212;23;20009;-73
2023/03/08 04:16:24;;;;;;;1.58;1.00;;;12.80;52.70;;;;;;6226242;23;19993;-73
2023/03/08 04:18:54;;;;;;;1.50;0.95;;;12.70;52.60;;;;;;6226131;23;20447;-73
2023/03/08 04:21:21;;;;;;;1.10;1.00;;;12.70;52.60;;;;;;6226171;23;20008;-74
2023/03/08 04:23:47;;;;;;;1.58;1.13;;;12.70;52.60;;;;;;6226097;23;20067;-73
2023/03/08 04:26:12;;;;;;;1.60;1.20;;;12.70;52.60;;;;;;6226142;23;20265;-73
2023/03/08 04:28:40;;;;;;;1.88;1.23;;;12.70;52.60;;;;;;6226136;23;20000;-73
2023/03/08 04:31:17;;;;;;;1.48;1.08;;;12.80;53.30;;;;;;6226037;23;20001;-73
2023/03/08 04:33:44;;;;;;;1.17;1.08;;;12.70;52.70;;;;;;6216242;23;20309;-73
2023/03/08 04:36:10;;;;;;;1.35;1.05;;;12.70;52.60;;;;;;6216180;23;20000;-73
2023/03/08 04:38:36;;;;;;;1.48;1.13;;;12.70;52.70;;;;;;6225990;23;20007;-73
2023/03/08 04:41:04;;;;;;;2.70;1.48;;;12.70;52.70;;;;;;6226028;23;20463;-74
2023/03/08 04:43:33;;;;;;;1.45;1.23;;;12.70;52.80;;;;;;6226029;23;20000;-73
2023/03/08 04:45:59;;;;;;;1.38;1.10;;;12.70;52.80;;;;;;6225389;23;20016;-74
2023/03/08 04:48:26;;;;;;;1.50;1.40;;;12.70;52.80;;;;;;6225767;23;19997;-73
2023/03/08 04:50:53;;;;;;;1.55;1.35;;;12.70;52.80;;;;;;6216065;23;20075;-74
2023/03/08 04:53:20;;;;;;;1.45;1.33;;;12.70;53.50;;;;;;6225792;23;20054;-74
2023/03/08 04:55:45;;;;;;;1.42;1.30;;;12.70;52.90;;;;;;6225849;23;20000;-73
2023/03/08 04:58:11;;;;;;;1.98;1.50;;;12.70;52.90;;;;;;6225800;23;20001;-71
2023/03/08 05:00:36;;;;;;;2.65;1.52;;;12.70;53.00;;;;;;6225759;23;20053;-71
2023/03/08 05:03:02;;;;;;;1.75;1.60;;;12.70;53.00;;;;;;6225418;23;20009;-70
2023/03/08 05:05:27;;;;;;;1.80;1.55;;;12.70;53.00;;;;;;6225658;23;20019;-71
2023/03/08 05:07:53;;;;;;;1.30;1.20;;;12.70;53.00;;;;;;6214037;23;20004;-71
2023/03/08 05:10:19;;;;;;;1.50;1.40;;;12.70;53.00;;;;;;6215790;23;20013;-71
2023/03/08 05:12:45;;;;;;;1.40;1.30;;;12.70;53.00;;;;;;6215813;23;20067;-71
2023/03/08 05:15:11;;;;;;;1.73;1.40;;;12.70;53.10;;;;;;6215360;23;20005;-74
2023/03/08 05:17:37;;;;;;;2.72;1.80;;;12.70;53.10;;;;;;6225663;23;20000;-71
2023/03/08 05:20:03;;;;;;;1.88;1.60;;;12.70;53.20;;;;;;6215842;23;20000;-71
2023/03/08 05:22:29;;;;;;;2.45;1.80;;;12.70;53.10;;;;;;6215681;23;20001;-71
2023/03/08 05:24:55;;;;;;;2.50;1.92;;;12.70;53.20;;;;;;6215777;23;19996;-71
2023/03/08 05:27:20;;;;;;;2.03;1.88;;;12.70;53.30;;;;;;6225438;23;20321;-71
2023/03/08 05:29:46;;;;;;;3.53;1.88;;;12.70;53.30;;;;;;6225537;23;20028;-71
2023/03/08 05:32:12;;;;;;;2.72;2.00;;;12.70;53.20;;;;;;6225440;23;20024;-71
2023/03/08 05:34:37;;;;;;;3.08;2.30;;;12.80;53.90;;;;;;6225407;23;20005;-73
2023/03/08 05:37:03;;;;;;;2.47;1.80;;;12.80;53.40;;;;;;6225523;23;20305;-74
2023/03/08 05:39:29;;;;;;;2.40;2.20;;;12.70;53.40;;;;;;6225393;23;20012;-73
2023/03/08 05:41:55;;;;;;;2.13;2.03;;;12.70;53.40;;;;;;6225461;23;20452;-73
2023/03/08 05:44:21;;;;;;;2.40;2.20;;;12.80;53.60;;;;;;6225318;23;20004;-73
2023/03/08 05:46:50;;;;;;;3.17;2.88;;;12.70;53.70;;;;;;6225365;23;20080;-73
2023/03/08 05:49:16;;;;;;;3.88;3.22;;;12.70;53.70;;;;;;6225308;23;20024;-73
2023/03/08 05:51:41;;;;;;;3.53;3.22;;;12.70;53.70;;;;;;6225388;23;20309;-72
2023/03/08 05:54:07;;;;;;;4.07;3.72;;;12.70;53.80;;;;;;6225206;23;20087;-71
2023/03/08 05:56:33;;;;;;;5.25;4.68;;;12.70;53.90;;;;;;6225151;23;20428;-71
2023/03/08 05:58:58;;;;;;;6.00;5.50;;;12.80;54.00;;;;;;6225035;23;20007;-71
2023/03/08 06:01:26;;;;;;;5.95;5.45;;;12.80;63.50;;;;;;6225036;23;20003;-70
2023/03/08 06:03:54;;;;;;;6.70;6.03;;;12.80;54.20;;;;;;6225023;23;20016;-70
2023/03/08 06:06:21;;;;;;;7.60;6.90;;;12.70;54.10;;;;;;6225043;23;20004;-70
2023/03/08 06:08:47;;;;;;;7.85;7.25;;;12.70;54.10;;;;;;6225102;23;20305;-70
2023/03/08 06:11:13;;;;;;;8.30;7.60;;;12.80;54.20;;;;;;6225006;23;20447;-70
2023/03/08 06:13:39;;;;;;;8.50;7.80;;;12.80;54.20;;;;;;6224854;23;20012;-70
2023/03/08 06:16:05;;;;;;;9.07;8.38;;;12.80;54.30;;;;;;6215154;23;20419;-70
2023/03/08 06:18:32;;;;;;;9.57;8.75;;;12.80;54.20;;;;;;6215186;23;20024;-70
2023/03/08 06:21:00;;;;;;;9.25;8.45;;;12.80;54.20;;;;;;6215223;23;19993;-70
2023/03/08 06:23:28;;;;;;;9.68;8.88;;;12.80;54.30;;;;;;6215190;23;20027;-71
2023/03/08 06:25:53;;;;;;;9.95;9.15;;;12.70;54.20;;;;;;6224865;23;19997;-71
2023/03/08 06:28:20;;;;;;;9.93;9.13;;;12.80;54.20;;;;;;6224843;23;20004;-71
2023/03/08 06:30:48;;;;;;;9.45;8.65;;;12.70;54.20;;;;;;6224916;23;20001;-72
2023/03/08 06:33:15;;;;;;;10.00;9.13;;;12.70;54.80;;;;;;6224761;23;19997;-72
2023/03/08 06:35:41;;;;;;;9.45;8.65;;;12.70;54.20;;;;;;6224784;23;20065;-72
2023/03/08 06:38:07;;;;;;;10.25;9.32;;;12.70;54.10;;;;;;6217038;23;20324;-72
2023/03/08 06:40:33;;;;;;;9.82;8.93;;;12.70;54.10;;;;;;6224788;23;20011;-73
2023/03/08 06:42:59;;;;;;;10.38;9.38;;;12.70;54.20;;;;;;6224785;23;20023;-74
2023/03/08 06:45:25;;;;;;;10.20;9.40;;;12.70;54.20;;;;;;6224734;23;20474;-72
2023/03/08 06:47:50;;;;;;;9.15;8.45;;;12.70;54.20;;;;;;6224749;23;19993;-72
2023/03/08 06:50:16;;;;;;;9.38;8.57;;;12.70;54.20;;;;;;6224703;23;20435;-72
2023/03/08 06:52:42;;;;;;;9.13;8.32;;;12.70;54.20;;;;;;6224684;23;20074;-72
2023/03/08 06:55:08;;;;;;;10.32;9.43;;;12.70;54.10;;;;;;6224613;23;20335;-73
2023/03/08 06:57:34;;;;;;;9.10;8.35;;;12.70;54.20;;;;;;6214491;23;20456;-72
2023/03/08 07:00:00;;;;;;;8.95;8.15;;;12.70;54.20;;;;;;6224656;23;20031;-72
2023/03/08 07:02:26;;;;;;;9.13;8.23;;;12.70;54.20;;;;;;6214253;23;20011;-72
2023/03/08 07:04:51;;;;;;;9.93;8.93;;;12.70;54.20;;;;;;6224642;23;20051;-72
2023/03/08 07:07:17;;;;;;;11.30;9.90;;;12.70;54.10;;;;;;6224683;23;20019;-73
2023/03/08 07:09:43;;;;;;;9.55;8.57;;;12.70;53.90;;;;;;6214514;23;20007;-73
2023/03/08 07:12:08;;;;;;;9.82;8.82;;;12.70;54.50;;;;;;6224543;23;19992;-73
2023/03/08 07:14:34;;;;;;;10.98;8.88;;;12.70;53.80;;;;;;6224317;23;20009;-73
2023/03/08 07:16:59;;;;;;;9.27;8.10;;;12.70;53.80;;;;;;6224572;23;20080;-73
2023/03/08 07:19:25;;;;;;;10.60;8.38;;;12.70;53.80;;;;;;6224543;23;20450;-73
2023/03/08 07:21:51;;;;;;;8.30;7.45;;;12.70;53.80;;;;;;6214738;23;19997;-73
2023/03/08 07:24:16;;;;;;;9.65;7.60;;;12.70;54.40;;;;;;6224636;23;20150;-71
2023/03/08 07:26:42;;;;;;;8.52;7.72;;;12.70;53.70;;;;;;6224569;23;20046;-70
2023/03/08 07:29:08;;;;;;;8.05;7.25;;;12.70;53.80;;;;;;6214329;23;20004;-71
2023/03/08 07:31:35;;;;;;;8.48;7.28;;;12.60;53.80;;;;;;6214693;23;20044;-70
2023/03/08 07:34:03;;;;;;;8.90;6.78;;;12.70;53.80;;;;;;6214524;23;20231;-71
2023/03/08 07:36:29;;;;;;;9.77;7.53;;;12.70;53.80;;;;;;6214255;23;20031;-72
2023/03/08 07:38:55;;;;;;;7.45;6.70;;;12.70;53.80;;;;;;6213135;23;20368;-71
2023/03/08 07:41:20;;;;;;;8.68;6.55;;;12.70;53.90;;;;;;6214745;23;19993;-72
2023/03/08 07:43:46;;;;;;;8.00;6.40;;;12.60;53.80;;;;;;6214763;23;20360;-74
2023/03/08 07:46:13;;;;;;;7.93;5.85;;;12.60;53.80;;;;;;6214383;23;20072;-77
2023/03/08 07:48:39;;;;;;;6.32;5.72;;;12.60;53.80;;;;;;6214679;23;20004;-75
2023/03/08 07:51:08;;;;;;;7.50;6.25;;;12.60;54.00;;;;;;6187927;23;20462;-75
2023/03/08 07:53:36;;;;;;;6.00;5.38;;;12.70;54.10;;;;;;6188541;23;20083;-75
2023/03/08 07:56:02;;;;;;;5.70;5.18;;;12.60;54.00;;;;;;6188288;23;20001;-75
2023/03/08 07:58:28;;;;;;;5.55;4.95;;;12.60;54.00;;;;;;6213375;23;20024;-73
2023/03/08 08:00:55;;;;;;;5.70;5.18;;;12.60;54.00;;;;;;6215387;23;19996;-73
2023/03/08 08:03:21;;;;;;;5.28;4.78;;;12.60;54.10;;;;;;6214043;23;20084;-74
2023/03/08 08:05:47;;;;;;;5.43;4.80;;;12.60;54.00;;;;;;6214495;23;20020;-73
2023/03/08 08:08:13;;;;;;;6.60;5.32;;;12.60;54.00;;;;;;6214107;23;20482;-74
2023/03/08 08:10:40;;;;;;;5.25;4.70;;;12.60;54.00;;;;;;6224284;23;20000;-74
2023/03/08 08:13:06;;;;;;;5.53;4.55;;;12.60;54.00;;;;;;6224155;23;20466;-75
2023/03/08 08:15:32;;;;;;;5.32;4.70;;;12.60;53.90;;;;;;6224293;23;19997;-75
2023/03/08 08:17:57;;;;;;;4.78;4.32;;;12.60;54.00;;;;;;6214204;23;20079;-72
2023/03/08 08:20:25;;;;;;;5.38;4.20;;;12.60;53.90;;;;;;6224507;23;20000;-73
2023/03/08 08:22:52;;;;;;;5.20;4.32;;;12.50;53.90;;;;;;6216455;23;20043;-73
2023/03/08 08:25:18;;;;;;;4.43;4.03;;;12.50;53.80;;;;;;6226211;23;20080;-73
2023/03/08 08:27:44;;;;;;;5.78;4.10;;;12.60;53.90;;;;;;6216043;23;19993;-73
2023/03/08 08:30:13;;;;;;;4.45;4.05;;;12.60;53.90;;;;;;6226197;23;20030;-72
2023/03/08 08:32:39;;;;;;;4.40;3.95;;;12.50;54.00;;;;;;6226073;23;20012;-72
2023/03/08 08:35:06;;;;;;;4.43;3.55;;;12.50;54.10;;;;;;6216084;23;20008;-72
2023/03/08 08:37:32;;;;;;;4.13;3.72;;;12.50;54.10;;;;;;6225924;23;20003;-72
2023/03/08 08:39:58;;;;;;;5.28;4.40;;;12.50;54.20;;;;;;6225995;23;20070;-70
2023/03/08 08:42:24;;;;;;;5.50;4.88;;;12.50;54.10;;;;;;6216126;23;19996;-70
2023/03/08 08:44:54;;;;;;;6.18;4.07;;;12.40;54.60;;;;;;6216181;23;20007;-70
2023/03/08 08:47:20;;;;;;;6.90;4.60;;;12.40;54.00;;;;;;6216125;23;20327;-70
2023/03/08 08:49:46;;;;;;;4.43;3.88;;;12.50;54.10;;;;;;6216059;23;20003;-70
2023/03/08 08:52:12;;;;;;;6.65;4.68;;;12.50;54.10;;;;;;6215456;23;20301;-70
2023/03/08 08:54:38;;;;;;;4.32;3.47;;;12.40;54.00;;;;;;6215721;23;20011;-70
2023/03/08 08:57:05;;;;;;;5.25;3.85;;;12.40;54.00;;;;;;6215883;23;19997;-70
2023/03/08 08:59:31;;;;;;;3.63;3.33;;;12.40;54.00;;;;;;6216106;23;20000;-70
2023/03/08 09:01:58;;;;;;;4.47;3.88;;;12.40;54.00;;;;;;6215610;23;19997;-70
2023/03/08 09:04:24;;;;;;;4.43;3.10;;;12.40;54.00;;;;;;6216227;23;19996;-70
2023/03/08 09:06:52;;;;;;;7.05;3.53;;;12.40;54.00;;;;;;6215429;23;20024;-71
2023/03/08 09:09:18;;;;;;;4.03;3.35;;;12.40;53.90;;;;;;6215747;23;20000;-70
2023/03/08 09:11:46;;;;;;;5.45;4.22;;;12.40;54.00;;;;;;6215766;23;20050;-71
2023/03/08 09:14:13;;;;;;;7.18;3.72;;;12.40;53.90;;;;;;6215333;23;20009;-73
2023/03/08 09:16:39;;;;;;;7.82;3.85;;;12.40;53.80;;;;;;6215778;23;19997;-72
2023/03/08 09:19:05;;;;;;;3.90;3.38;;;12.40;53.80;;;;;;6215691;23;20008;-71
2023/03/08 09:21:32;;;;;;;9.68;3.90;;;12.40;53.80;;;;;;6228287;23;19993;-73
2023/03/08 09:24:00;;;;;;;6.32;3.72;;;12.40;53.90;;;;;;6214590;23;20339;-72
2023/03/08 09:26:31;;;;;;;4.90;3.60;;;12.40;53.80;;;;;;6225382;23;20000;-71
2023/03/08 09:28:57;;;;;;;;;;;12.30;53.90;;;;;;6216334;23;20323;-72
2023/03/08 09:31:23;;;;;;;4.45;3.30;;;12.30;53.80;;;;;;6215894;23;19900;-73
2023/03/08 09:33:53;;;;;;;7.10;3.55;;;12.40;53.80;;;;;;6225088;23;20455;-73
2023/03/08 09:36:19;;;;;;;4.88;2.83;;;12.30;53.80;;;;;;6225422;23;20032;-72
2023/03/08 09:38:49;;;;;;;5.35;2.97;;;12.30;53.80;;;;;;6225210;23;20031;-73
2023/03/08 09:41:18;;;;;;;;;;;12.30;53.90;;;;;;6215930;23;20000;-74
2023/03/08 09:44:11;;;;;;;4.22;3.17;;;12.30;53.80;;;;;;6215420;23;19907;-74
2023/03/08 09:46:45;;;;;;;3.80;2.92;;;12.30;53.80;;;;;;6225590;23;19996;-74
2023/03/08 09:49:24;;;;;;;6.35;3.10;;;12.30;53.80;;;;;;6215355;23;20001;-73
2023/03/08 09:51:58;;;;;;;3.97;3.27;;;12.30;53.80;;;;;;6215168;23;19992;-71
2023/03/08 09:54:26;;;;;;;3.28;2.78;;;12.30;53.80;;;;;;6215335;23;20263;-70
2023/03/08 09:56:55;;;;;;;3.17;2.85;;;12.30;53.80;;;;;;6215301;23;19997;-70
2023/03/08 09:59:43;;;;;;;3.85;2.80;;;12.30;53.90;;;;;;6215234;23;20047;-70
2023/03/08 10:02:30;;;;;;;2.83;2.53;;;12.30;53.90;;;;;;6215197;23;20019;-70
2023/03/08 10:05:02;;;;;;;4.65;2.65;;;12.30;53.80;;;;;;6215184;23;20011;-70
2023/03/08 10:07:34;;;;;;;2.97;2.50;;;12.30;53.80;;;;;;6215114;23;20004;-70
2023/03/08 10:10:12;;;;;;;2.78;2.20;;;12.30;53.70;;;;;;6214970;23;20001;-73
2023/03/08 10:13:17;;;;;;;4.57;2.40;;;12.30;53.80;;;;;;6224949;23;20020;-73
2023/03/08 10:15:48;;;;;;;4.40;2.60;;;12.30;53.80;;;;;;6224875;23;20510;-73
2023/03/08 10:18:17;;;;;;;3.30;2.30;;;12.30;53.70;;;;;;6214850;23;20455;-73
2023/03/08 10:20:45;;;;;;;2.72;2.20;;;12.30;53.70;;;;;;6224708;23;20328;-72
2023/03/08 10:23:18;;;;;;;2.17;1.98;;;12.30;53.80;;;;;;6215094;23;20315;-71
2023/03/08 10:25:45;;;;;;;2.60;2.05;;;12.30;53.70;;;;;;6225185;23;20360;-72
2023/03/08 10:28:14;;;;;;;2.50;2.10;;;12.30;53.80;;;;;;6224827;23;20028;-73
2023/03/08 10:30:44;;;;;;;2.00;1.80;;;12.30;53.70;;;;;;6224716;23;20046;-71
2023/03/08 10:33:13;;;;;;;3.03;2.47;;;12.30;53.60;;;;;;6224511;23;20005;-71
2023/03/08 10:35:57;;;;;;;3.33;2.33;;;12.30;53.60;;;;;;6224785;23;20031;-72
2023/03/08 10:38:25;;;;;;;2.33;1.95;;;12.30;53.60;;;;;;6214947;23;20053;-71
2023/03/08 10:41:11;;;;;;;2.45;2.20;;;12.30;53.60;;;;;;6224659;23;20000;-72
2023/03/08 10:43:48;;;;;;;1.98;1.73;;;12.30;53.60;;;;;;6214399;23;19996;-71
2023/03/08 10:46:16;;;;;;;2.50;2.00;;;12.30;53.60;;;;;;6224343;23;20120;-71
2023/03/08 10:48:42;;;;;;;2.78;1.90;;;12.30;53.50;;;;;;6214725;23;20376;-71
2023/03/08 10:51:21;;;;;;;2.22;1.55;;;12.30;53.60;;;;;;6214848;23;20068;-72
2023/03/08 10:53:57;;;;;;;2.43;1.87;;;12.30;53.60;;;;;;6224571;23;20276;-75
2023/03/08 10:56:35;;;;;;;1.63;1.52;;;12.30;53.60;;;;;;6224836;23;19999;-73
2023/03/08 10:59:03;;;;;;;2.53;2.05;;;12.30;53.60;;;;;;6224706;23;20448;-71
2023/03/08 11:01:33;;;;;;;1.95;1.85;;;12.30;62.90;;;;;;6224623;23;20004;-71
2023/03/08 11:04:04;;;;;;;3.97;1.80;;;12.30;53.60;;;;;;6224926;23;20004;-71
2023/03/08 11:06:33;;;;;;;2.75;1.80;;;12.30;53.50;;;;;;6224762;23;20004;-71
2023/03/08 11:09:01;;;;;;;2.50;1.40;;;12.30;53.60;;;;;;6224822;23;20335;-70
2023/03/08 11:11:27;;;;;;;1.67;1.58;;;12.30;53.60;;;;;;6224724;23;20001;-71
2023/03/08 11:13:54;;;;;;;1.48;1.35;;;12.30;53.60;;;;;;6214758;23;20372;-72
2023/03/08 11:16:23;;;;;;;1.48;1.25;;;12.30;53.70;;;;;;6214856;23;20075;-72
2023/03/08 11:19:07;;;;;;;1.40;1.30;;;12.30;53.60;;;;;;6214403;23;20001;-72
2023/03/08 11:22:02;;;;;;;2.92;1.80;;;12.30;53.70;;;;;;6214851;23;20375;-72
2023/03/08 11:24:34;;;;;;;2.10;1.70;;;12.20;53.60;;;;;;6215093;23;20005;-71
2023/03/08 11:27:31;;;;;;;1.23;1.13;;;12.30;53.60;;;;;;6224579;23;20000;-71
2023/03/08 11:30:17;;;;;;;1.48;1.38;;;12.30;53.70;;;;;;6212981;23;20007;-72
2023/03/08 11:32:46;;;;;;;1.52;1.33;;;12.30;53.70;;;;;;6224524;23;19993;-72
2023/03/08 11:35:44;;;;;;;2.35;1.60;;;12.20;53.70;;;;;;6224448;23;20008;-73
2023/03/08 11:38:24;;;;;;;1.58;1.48;;;12.20;53.70;;;;;;6224553;23;20001;-72
2023/03/08 11:40:57;;;;;;;2.33;1.55;;;12.20;53.70;;;;;;6214798;23;20071;-72
2023/03/08 11:43:34;;;;;;;2.45;1.50;;;12.30;53.80;;;;;;6214853;23;20004;-72
2023/03/08 11:46:45;;;;;;;1.80;1.40;;;12.30;53.80;;;;;;6214380;23;20079;-72
2023/03/08 11:49:35;;;;;;;2.17;1.80;;;12.30;53.80;;;;;;6214745;23;19992;-71
2023/03/08 11:52:27;;;;;;;2.33;1.55;;;12.20;53.90;;;;;;6214316;23;20432;-72
2023/03/08 11:55:52;;;;;;;2.50;2.00;;;12.20;54.00;;;;;;6214560;23;20027;-72
2023/03/08 11:58:45;;;;;;;3.40;1.85;;;12.10;54.10;;;;;;6170905;23;20004;-71
2023/03/08 12:01:28;;;;;;;2.38;1.70;;;12.10;54.30;;;;;;6216451;23;20000;-72
2023/03/08 12:04:03;;;;;;;3.83;1.50;;;12.10;54.40;;;;;;6216163;23;20008;-72
2023/03/08 12:06:41;;;;;;;1.52;1.42;;;12.10;54.50;;;;;;6216653;23;20000;-72
2023/03/08 12:09:29;;;;;;;2.65;1.90;;;12.10;54.50;;;;;;6216587;23;20425;-72
2023/03/08 12:12:20;;;;;;;3.30;1.63;;;12.10;54.50;;;;;;6216525;23;20004;-72
2023/03/08 12:14:59;;;;;;;2.70;1.70;;;12.10;54.50;;;;;;6216394;23;20309;-72
2023/03/08 12:17:30;;;;;;;3.20;1.48;;;12.10;54.60;;;;;;6216182;23;19997;-72
2023/03/08 12:19:56;;;;;;;2.20;1.80;;;12.10;54.60;;;;;;6216426;23;20003;-72
2023/03/08 12:22:46;;;;;;;2.33;1.67;;;12.10;55.20;;;;;;6216535;23;20000;-73
2023/03/08 12:25:26;;;;;;;1.50;1.40;;;12.10;54.60;;;;;;6216512;23;20003;-72
2023/03/08 12:28:12;;;;;;;3.20;1.40;;;12.10;54.60;;;;;;6216424;23;20328;-73
2023/03/08 12:30:55;;;;;;;2.95;1.48;;;12.10;54.70;;;;;;6216353;23;20005;-72
2023/03/08 12:33:22;;;;;;;1.45;1.35;;;12.10;54.60;;;;;;6225977;23;20054;-72
2023/03/08 12:35:55;;;;;;;1.60;1.50;;;12.00;54.70;;;;;;6226133;23;20007;-72
2023/03/08 12:38:21;;;;;;;2.53;1.50;;;12.10;54.80;;;;;;6225920;23;20079;-74
2023/03/08 12:40:52;;;;;;;2.10;1.58;;;12.00;54.80;;;;;;6215654;23;20020;-72
2023/03/08 12:43:18;;;;;;;2.15;1.52;;;12.00;54.80;;;;;;6225637;23;20495;-72
2023/03/08 12:46:05;;;;;;;2.45;1.65;;;12.00;54.90;;;;;;6215880;23;20039;-72
2023/03/08 12:48:31;;;;;;;1.63;1.52;;;12.00;54.80;;;;;;6215407;23;20313;-72
2023/03/08 12:51:19;;;;;;;2.28;1.65;;;12.00;54.80;;;;;;6216025;23;20000;-72
2023/03/08 12:53:51;;;;;;;1.73;1.48;;;12.00;54.80;;;;;;6224400;23;20444;-72
2023/03/08 12:56:36;;;;;;;2.42;1.60;;;12.00;54.90;;;;;;6216179;23;20070;-72
2023/03/08 12:59:14;;;;;;;2.25;1.42;;;12.00;55.00;;;;;;6225778;23;20001;-72